My Meet Scores
Klaudia Szwarc, Gym Kinetics Gymnastics - MyMeetScores.com
Top100 | Top Teams | Upcoming Meets | Completed Meets | Latest | Add Scores | Help| Support | Bookmark and Share

Klaudia Szwarc, Gym Kinetics Gymnastics
Personal Bests
LevelVault BarsBeamFloorAA
39.6009.525 9.6009.42537.750
49.0508.900 9.5259.25036.550
59.5009.400 9.7759.42537.900
78.6258.625 9.4259.47535.675
Scores on America's Top 100as of 04.02.2020
Year Level Vault Bars Beam Floor AA
2018 59.775

Click here to view our exclusive Top 100 Collection
Meet Scores
Date Meet Team Session Level Division Vault Bars Beam Floor AA
2019-02-23 Kinetic Classic 2019 Gym Kinetics Gymnastics 1 7 Middle 8.625 12 0.000 17 8.725 11 9.300 4T 26.650 16
2019-02-08 Midwest Twisters Harley Meet Womens Gym Kinetics Gymnastics O03 7 13 yrs. 8.550 14 8.625 9 8.800 6 9.400 4T 35.375 6
2019-01-11 St Jude Benefit Meet Gym Kinetics Gymnastics 5B 7 Sr A 8.575 10T 8.100 16 9.300 5 9.375 12T 35.350 11
2018-12-14 2018 Aspire Classic Gym Kinetics Gymnastics 10B 7 Older 8.450 12T 8.325 10 9.425 2T 9.475 3 35.675 7
2018-03-08 Level 4 & 5 State Gym Kinetics Gymnastics 10 5 Sr A 9.400 4T 9.050 5T 9.775 1 9.350 5 37.575 4
2018-02-23 Kinetic Classic Gym Kinetics Gymnastics 8 5 Older 9.325 12T 9.000 40T 9.450 10* 9.375 18 37.150 12T
2018-02-09 Arizona Sunrays Classic Rock Invitational Gym Kinetics Gymnastics R05 5 SrB 9.500 1 9.400 3 9.575 1 9.425 1 37.900 1
2018-02-03 Midwest Games Gym Kinetics Gymnastics 7 5 SR 9.275 5 9.275 2 9.575 3 9.425 3T 37.550 2
2018-01-19 2018 Bravo Classic Gym Kinetics Gymnastics 3B 5 Sr 9.300 6T 9.050 8T 9.650 1T 9.350 1T 37.350 2
2017-12-15 2017 Aspire Classic Gym Kinetics Gymnastics 6A 5 Older 9.150 3T 8.375 9 9.525 1 9.400 2T 36.450 2
2017-03-10 2017 Illinois Level 4 State Championships Gym Kinetics Gymnastics 5 4 Jr D 9.050 6 8.850 14T 9.400 6T 9.250 6T 36.550 5
2017-02-24 Kinetic Classic Gym Kinetics Gymnastics 5,6 4 All Ages 9.000 38T 8.900 58T 9.075 66T 9.200 30T 36.175 45
2017-02-09 Hal's Harley-Davidson Invite Gym Kinetics Gymnastics O10 4 11 yrs. 8.775 5 8.650 10 9.525 1 8.850 6 35.800 5
2017-01-13 St Jude Benefit Meet Gym Kinetics Gymnastics 4A 4 Jr C 8.750 6T 8.250 17T 9.475 2 8.950 8 35.425 11T
2016-12-16 2016 Aspire Classic Gym Kinetics Gymnastics 7 4 Older 9.000 6 8.700 15 9.400 5T 8.925 15 36.025 10
2016-03-04 2016 Illinois Level 3 State Championships Gym Kinetics Gymnastics 3 Senior-A 9.600 1 9.175 9 9.175 2 9.200 8 37.150 2
2016-02-20 Big Classic Gym Kinetics Gymnastics 4B 3 Child C 9.475 2 9.400 4 9.325 3 9.400 2 37.600 4
2016-01-22 2016 Honkytonk Classic Gym Kinetics Gymnastics 02 3 Jr 9.300 3 9.525 1 9.450 1 9.250 3 37.525 1
2016-01-15 2016 Bravo Classic Gym Kinetics Gymnastics 3A 3 9+yrs 9.200 7 8.700 19T 9.150 16 9.150 9 36.200 11
2015-12-18 2015 Aspire Classic Gym Kinetics Gymnastics 10 3 Older 9.450 8 9.275 11 9.600 3T 9.425 7 37.750 7
Get your scores on
a t-shirt, pin, or hoodie

www.lazysuits.com